Airfield :
LOGIN :

Register | Disclaimer

   EN    FR    IT 

 










Legend :    VFR   Marginal VFR   IFR   Intensive IFR   Very Intensive IFR
Visi :
Ceiling :
>= 8 km
>= 3000ft
5 to 8 km
1000 to 3000 ft
1500m to 5 km
500 to 1000 ft
800 to 1500m
200 to 500 ft
< 800m
< 200 ft
Symbols :   Thunderstorms  Fog  Heavy snow  Heavy precipitations  Wind > 20 kt
SIGMETs :     Misc.  Thunderstorms  Icing  Turbulence  Mountain Waves  Volcanic Ashes






- Airport Elevation : 36 ft


EGXV - RAF Leconfield

CURRENT METAR :
  • 212320Z AUTO 15004KT 9999 // BKN024/// 08/07 Q0992

EXPIRED METARs :
  • 212250Z AUTO 20003KT 9999 // OVC018/// 09/07 Q0992
  • 212220Z AUTO 18003KT 9999 -RA OVC021/// 09/07 Q0993
  • 212150Z AUTO 18003KT 9999 OVC027/// 10/07 Q0993
  • 212120Z AUTO 18004KT 9999 OVC036/// 10/08 Q0993
  • 212050Z AUTO 20003KT 9999 FEW040/// 09/06 Q0993
  • 212020Z AUTO 22005KT 9999 FEW050/// 10/07 Q0993
  • 211950Z AUTO 23006KT 9999 FEW023/// BKN043/// 11/07 Q0993
  • 211920Z AUTO 24006KT 9999 FEW029/// SCT051/// 11/08 Q0993
  • 211850Z AUTO 25007KT 9999 FEW049/// 11/08 Q0993
  • 211820Z AUTO 26010KT 9999 BKN023/// 12/08 Q0993
  • 211750Z AUTO 24007KT 9999 // OVC024/// 12/10 Q0993

TAF N/A



MET'MAP, your aeronautical weather chart ! - Copyright ORBIFLY December 2007 - Disclaimer

ORBIFLY MET'MAP TEAM :

Programming & Development : Alexandra Zaïnal
Original concept : Baudouin d'Aumeries
Technical & hardware support : Manuel Goepfert
Assistance : Marc-Olivier Méhu




SOURCES & CREDITS :

   NOAA